Latest Coastal Weather Observations for Hogan Island

IDV60701

Issued at 7:31 am EDT Tuesday 27 January 2015 (issued every 10 minutes, with the page automatically refreshed every 10 minutes)

About coastal observations | Map of coastal stations | Coastal observations for VIC | Marine services | Other Formats
Station Details ID: 200838 Name: HOGAN ISLAND Lat: -39.22 Lon: 146.98 Height: 116.0 m
Data from the previous 72 hours. | See also: Recent months at Hogan Island
Date/Time
EDT
Temp

°C
Wind Pressure Rain
since 9am
mm
Weather Cloud Vis
km
Sea
Height
m
Swell
Dir
 
Speed
knots
Gust
knots
hPa Trend Height
m
Period
s
Dir
27/07:30am 14.2 SW 10 11 1016.9 - 0.0 - - - - - - -
27/07:00am 13.8 SW 10 12 1016.6 - 0.0 - - - - - - -
27/06:30am 13.0 WNW 5 6 1016.6 - 0.0 - - - - - - -
27/06:00am 12.7 WSW 7 8 1016.4 - 0.0 - - - - - - -
27/05:30am 12.8 W 7 9 1016.4 - 0.0 - - - - - - -
27/05:00am 12.5 W 7 10 1016.2 - 0.0 - - - - - - -
27/04:30am 12.7 WSW 6 7 1016.3 - 0.0 - - - - - - -
27/04:00am 13.2 CALM 0 0 1016.4 - 0.0 - - - - - - -
27/03:30am 13.2 W 1 5 1016.6 - 0.0 - - - - - - -
27/03:00am 13.2 WSW 3 6 1016.7 - 0.0 - - - - - - -
27/02:30am 13.1 SW 4 5 1017.0 - 0.0 - - - - - - -
27/02:00am 13.3 WSW 5 6 1017.2 - 0.0 - - - - - - -
27/01:30am 13.0 WSW 7 8 1017.5 - 0.0 - - - - - - -
27/01:00am 13.0 WSW 7 9 1017.5 - 0.0 - - - - - - -
27/12:30am 13.0 WSW 8 9 1017.6 - 0.0 - - - - - - -
27/12:00am 13.1 WSW 9 11 1017.3 - 0.0 - - - - - - -
 
Date/Time
EDT
Temp

°C
Wind Pressure Rain
since 9am
mm
Weather Cloud Vis
km
Sea
Height
m
Swell
Dir
 
Speed
knots
Gust
knots
hPa Trend Height
m
Period
s
Dir
26/11:30pm 13.0 SW 9 11 1017.7 - 0.0 - - - - - - -
26/11:00pm 13.4 SW 9 12 1017.8 - 0.0 - - - - - - -
26/10:30pm 13.5 WSW 10 13 1017.8 - 0.0 - - - - - - -
26/10:00pm 13.5 WSW 11 13 1017.8 - 0.0 - - - - - - -
26/09:30pm 13.4 WSW 13 15 1017.6 - 0.0 - - - - - - -
26/09:00pm 13.7 WSW 14 16 1017.0 - 0.0 - - - - - - -
26/08:30pm 13.8 WSW 15 19 1017.1 - 0.0 - - - - - - -
26/08:00pm 14.6 WSW 16 20 1016.8 - 0.0 - - - - - - -
26/07:30pm 15.4 WSW 16 18 1016.6 - 0.0 - - - - - - -
26/07:00pm 16.2 WSW 15 18 1016.4 - 0.0 - - - - - - -
26/06:30pm 16.9 WSW 15 19 1016.2 - 0.0 - - - - - - -
26/06:00pm 17.1 WSW 16 20 1016.0 - 0.0 - - - - - - -
26/05:30pm 17.3 WSW 17 20 1016.2 - 0.0 - - - - - - -
26/05:00pm 18.4 WSW 16 20 1016.3 - 0.0 - - - - - - -
26/04:30pm 18.0 SW 15 18 1016.4 - 0.0 - - - - - - -
26/04:00pm 18.5 WSW 16 19 1016.3 - 0.0 - - - - - - -
26/03:30pm 19.0 SW 14 18 1016.4 - 0.0 - - - - - - -
26/03:00pm 19.9 WSW 14 16 1016.4 - 0.0 - - - - - - -
26/02:30pm 19.1 WSW 14 16 1016.5 - 0.0 - - - - - - -
26/02:00pm 18.8 WSW 15 19 1016.6 - 0.0 - - - - - - -
26/01:30pm 18.7 WSW 16 19 1016.7 - 0.0 - - - - - - -
26/01:00pm 18.5 WSW 16 20 1016.6 - 0.0 - - - - - - -
26/12:30pm 19.2 WSW 15 19 1016.5 - 0.0 - - - - - - -
26/12:00pm 19.0 SW 15 19 1016.2 - 0.0 - - - - - - -
26/11:30am 18.0 SW 16 21 1016.1 - 0.0 - - - - - - -
26/11:00am 18.3 SW 17 22 1016.1 - 0.0 - - - - - - -
26/10:30am 17.8 SW 17 21 1016.0 - 0.0 - - - - - - -
26/10:00am 16.7 WSW 16 19 1015.8 - 0.0 - - - - - - -
26/09:30am 16.0 WSW 18 21 1015.7 - 0.0 - - - - - - -
26/09:00am 15.6 WSW 18 22 1015.3 - 0.0 - - - - - - -
26/08:30am 15.2 WSW 18 23 1015.0 - 0.0 - - - - - - -
26/08:00am 14.4 WSW 18 23 1014.6 - 0.0 - - - - - - -
26/07:30am 14.0 WSW 20 24 1014.3 - 0.0 - - - - - - -
26/07:00am 13.6 WSW 20 25 1014.0 - 0.0 - - - - - - -
26/06:30am 13.3 WSW 19 23 1013.6 - 0.0 - - - - - - -
26/06:00am 13.3 WSW 21 25 1012.9 - 0.0 - - - - - - -
26/05:30am 13.3 WSW 20 23 1012.8 - 0.0 - - - - - - -
26/05:00am 13.2 WSW 20 24 1012.5 - 0.0 - - - - - - -
26/04:30am 13.3 WSW 23 28 1012.3 - 0.0 - - - - - - -
26/04:00am 13.3 WSW 23 27 1012.1 - 0.0 - - - - - - -
26/03:30am 13.4 W 23 27 1011.9 - 0.0 - - - - - - -
26/03:00am 13.4 W 23 27 1011.6 - 0.0 - - - - - - -
26/02:30am 13.1 W 24 27 1011.7 - 0.0 - - - - - - -
26/02:00am 13.2 WSW 25 30 1011.5 - 0.0 - - - - - - -
26/01:30am 13.4 WSW 24 28 1011.5 - 0.0 - - - - - - -
26/01:00am 13.4 W 27 32 1011.3 - 0.0 - - - - - - -
26/12:30am 13.4 WSW 28 33 1011.4 - 0.0 - - - - - - -
26/12:00am 13.6 WSW 24 29 1011.2 - 0.0 - - - - - - -
 
Date/Time
EDT
Temp

°C
Wind Pressure Rain
since 9am
mm
Weather Cloud Vis
km
Sea
Height
m
Swell
Dir
 
Speed
knots
Gust
knots
hPa Trend Height
m
Period
s
Dir
25/11:30pm 13.9 WSW 28 33 1011.0 - 0.0 - - - - - - -
25/11:00pm 14.0 W 31 37 1010.7 - 0.0 - - - - - - -
25/10:30pm 12.9 W 29 35 1010.6 - 0.0 - - - - - - -
25/10:18pm 12.9 WSW 31 44 1010.2 - 0.0 - - - - - - -
25/10:00pm 14.4 W 32 37 1010.3 - 0.0 - - - - - - -
25/09:30pm 14.2 W 33 38 1009.7 - 0.0 - - - - - - -
25/09:00pm 14.0 W 30 34 1009.3 - 0.0 - - - - - - -
25/08:30pm 14.4 W 33 38 1009.0 - 0.0 - - - - - - -
25/08:00pm 14.9 W 34 39 1008.7 - 0.0 - - - - - - -
25/07:30pm 14.9 W 36 43 1008.3 - 0.0 - - - - - - -
25/07:00pm 15.0 W 38 44 1007.9 - 0.0 - - - - - - -
25/06:30pm 15.6 W 38 46 1007.1 - 0.0 - - - - - - -
25/06:00pm 15.9 W 38 46 1006.5 - 0.0 - - - - - - -
25/05:30pm 15.9 W 39 48 1006.3 - 0.0 - - - - - - -
25/05:01pm 17.1 W 36 46 1006.4 - 0.0 - - - - - - -
25/05:00pm 16.7 W 37 46 1006.3 - 0.0 - - - - - - -
25/04:59pm 16.4 W 37 47 1006.3 - 0.0 - - - - - - -
25/04:30pm 16.9 W 38 45 1006.0 - 0.0 - - - - - - -
25/04:00pm 17.0 W 38 46 1005.9 - 0.0 - - - - - - -
25/03:35pm 15.9 W 37 47 1005.7 - 0.0 - - - - - - -
25/03:30pm 15.4 W 35 42 1006.0 - 0.0 - - - - - - -
25/03:00pm 16.0 W 38 44 1005.4 - 0.0 - - - - - - -
25/02:30pm 17.1 W 39 48 1005.3 - 0.0 - - - - - - -
25/02:27pm 16.3 W 38 48 1005.1 - 0.0 - - - - - - -
25/02:00pm 16.3 W 40 47 1004.8 - 0.0 - - - - - - -
25/01:49pm 17.7 W 37 48 1004.8 - 0.0 - - - - - - -
25/01:30pm 17.8 W 39 46 1004.8 - 0.0 - - - - - - -
25/01:00pm 17.0 W 38 44 1004.6 - 0.0 - - - - - - -
25/12:30pm 17.3 W 37 43 1004.4 - 0.0 - - - - - - -
25/12:00pm 17.2 W 36 43 1004.1 - 0.0 - - - - - - -
25/11:30am 16.4 W 34 39 1004.2 - 0.0 - - - - - - -
25/11:00am 16.9 W 33 38 1004.0 - 0.0 - - - - - - -
25/10:30am 15.6 W 34 39 1003.5 - 0.0 - - - - - - -
25/10:00am 15.4 WSW 28 33 1004.0 - 0.0 - - - - - - -
25/09:30am 14.2 W 35 42 1003.4 - 0.0 - - - - - - -
25/09:26am 14.8 W 33 42 1003.3 - 0.0 - - - - - - -
25/09:00am 14.8 W 27 32 1003.3 - 0.8 - - - - - - -
25/08:30am 13.8 W 28 34 1003.2 - 0.8 - - - - - - -
25/08:00am 14.0 W 28 32 1002.9 - 0.6 - - - - - - -
25/07:30am 14.2 W 35 42 1002.2 - 0.4 - - - - - - -
25/07:00am 14.0 W 37 43 1001.2 - 0.4 - - - - - - -
25/06:43am 14.2 W 34 45 1001.2 - 0.0 - - - - - - -
25/06:30am 14.9 W 36 41 1000.7 - 0.0 - - - - - - -
25/06:28am 15.1 WSW 34 39 1000.7 - 0.0 - - - - - - -
25/06:24am 16.4 WNW 23 35 1000.9 - 0.0 - - - - - - -
25/06:00am 17.1 W 24 28 1000.5 - 0.0 - - - - - - -
25/05:30am 16.9 WNW 15 19 1000.7 - 0.0 - - - - - - -
25/05:00am 16.4 WNW 9 11 1000.1 - 0.0 - - - - - - -
25/04:30am 16.1 W 8 9 1000.3 - 0.0 - - - - - - -
25/04:00am 16.2 WNW 8 9 1000.8 - 0.0 - - - - - - -
25/03:30am 16.2 W 9 11 1001.1 - 0.0 - - - - - - -
25/03:00am 15.9 W 7 8 1001.0 - 0.0 - - - - - - -
25/02:30am 16.4 WNW 7 8 1001.5 - 0.0 - - - - - - -
25/02:00am 16.7 W 8 10 1001.5 - 0.0 - - - - - - -
25/01:30am 16.3 W 8 9 1002.1 - 0.0 - - - - - - -
25/01:00am 16.7 W 9 10 1002.2 - 0.0 - - - - - - -
25/12:30am 16.7 W 8 9 1002.4 - 0.0 - - - - - - -
25/12:00am 16.6 WSW 5 7 1002.4 - 0.0 - - - - - - -
 
Date/Time
EDT
Temp

°C
Wind Pressure Rain
since 9am
mm
Weather Cloud Vis
km
Sea
Height
m
Swell
Dir
 
Speed
knots
Gust
knots
hPa Trend Height
m
Period
s
Dir
24/11:30pm 16.6 WNW 4 5 1003.0 - 0.0 - - - - - - -
24/11:00pm 16.2 E 1 3 1003.1 - 0.0 - - - - - - -
24/10:30pm 15.9 CALM 0 0 1003.5 - 0.0 - - - - - - -
24/10:00pm 16.1 E 3 4 1003.6 - 0.0 - - - - - - -
24/09:30pm 16.0 E 7 8 1003.7 - 0.0 - - - - - - -
24/09:00pm 16.3 E 9 10 1003.6 - 0.0 - - - - - - -
24/08:30pm 16.5 ENE 9 11 1003.9 - 0.0 - - - - - - -
24/08:00pm 17.4 ENE 9 10 1003.8 - 0.0 - - - - - - -
24/07:30pm 18.1 E 8 9 1003.2 - 0.0 - - - - - - -
24/07:00pm 18.5 E 8 10 1002.9 - 0.0 - - - - - - -
24/06:30pm 18.9 E 9 11 1003.2 - 0.0 - - - - - - -
24/06:00pm 19.1 E 10 11 1002.9 - 0.0 - - - - - - -
24/05:30pm 19.6 E 10 12 1002.9 - 0.0 - - - - - - -
24/05:00pm 19.7 E 11 13 1003.0 - 0.0 - - - - - - -
24/04:30pm 20.0 E 11 13 1003.3 - 0.0 - - - - - - -
24/04:00pm 20.4 ESE 10 12 1003.7 - 0.0 - - - - - - -
24/03:30pm 19.7 ESE 10 11 1003.9 - 0.0 - - - - - - -
24/03:00pm 19.9 ESE 9 12 1004.0 - 0.0 - - - - - - -
24/02:30pm 19.3 ESE 8 11 1004.6 - 0.0 - - - - - - -
24/02:00pm 19.5 ENE 8 11 1004.9 - 0.0 - - - - - - -
24/01:30pm 19.1 ENE 10 13 1005.0 - 0.0 - - - - - - -
24/01:00pm 18.9 ENE 7 10 1005.3 - 0.0 - - - - - - -
24/12:30pm 19.5 ENE 6 8 1005.8 - 0.0 - - - - - - -
24/12:00pm 19.3 NE 6 9 1005.8 - 0.0 - - - - - - -
24/11:30am 21.0 NE 4 8 1006.0 - 0.0 - - - - - - -
24/11:00am 19.6 SE 4 6 1006.3 - 0.0 - - - - - - -
24/10:30am 18.5 WNW 3 5 1006.6 - 0.0 - - - - - - -
24/10:00am 18.2 W 5 6 1006.5 - 0.0 - - - - - - -
24/09:30am 17.5 W 4 5 1006.7 - 0.0 - - - - - - -
24/09:00am 17.1 NE 3 5 1006.6 - 0.0 - - - - - - -
24/08:30am 16.7 ENE 4 5 1006.7 - 0.0 - - - - - - -
24/08:00am 16.3 ENE 6 7 1006.6 - 0.0 - - - - - - -

Other Formats:

Comma delimited format used in spreadsheet applications
http://www.bom.gov.au/fwo/IDV60701/IDV60701.94949.axf

JavaScript Object Notation format (JSON) in row-major order
http://www.bom.gov.au/fwo/IDV60701/IDV60701.94949.json